createdAt,value
2022-08-07T00:02:41.101Z,-23843.88
2022-08-07T00:05:31.416Z,-23832.00
2022-08-07T00:08:19.265Z,-23843.41
2022-08-07T00:11:07.239Z,-23833.44
2022-08-07T00:13:57.988Z,-23824.22
2022-08-07T00:16:46.442Z,-23816.47
2022-08-07T00:20:00.225Z,-23816.47
2022-08-07T00:22:40.720Z,-23822.28
2022-08-07T00:25:41.168Z,-23823.50
2022-08-07T00:28:33.928Z,-23831.28
2022-08-07T00:31:21.421Z,-23818.66
2022-08-07T00:34:09.308Z,-23816.22
2022-08-07T00:36:56.715Z,-23813.78
2022-08-07T00:39:45.240Z,-23812.81
2022-08-07T00:42:33.719Z,-23811.59
2022-08-07T00:45:23.830Z,-23805.78
2022-08-07T00:48:12.143Z,-23803.34
2022-08-07T00:51:01.194Z,-23817.19
2022-08-07T00:53:50.125Z,-23793.16
2022-08-07T00:56:42.011Z,-23798.03
2022-08-07T00:59:35.377Z,-23807.47
2022-08-07T01:02:28.708Z,-23816.94
2022-08-07T01:05:18.879Z,-23817.19
2022-08-07T01:08:06.584Z,-23793.63
2022-08-07T01:10:56.721Z,-23798.72
2022-08-07T01:13:56.009Z,-23805.06
2022-08-07T01:16:47.221Z,-23797.28
2022-08-07T01:19:38.452Z,-23783.94
2022-08-07T01:22:29.319Z,-23791.94
2022-08-07T01:25:54.104Z,-23788.53
2022-08-07T01:28:24.061Z,-23780.53
2022-08-07T01:31:12.335Z,-23775.44
2022-08-07T01:34:02.836Z,-23765.97
2022-08-07T01:36:57.654Z,-23783.94
2022-08-07T01:39:46.882Z,-23782.50
2022-08-07T01:42:39.542Z,-23782.00
2022-08-07T01:45:43.131Z,-23788.31
2022-08-07T01:48:34.018Z,-23799.22
2022-08-07T01:52:02.656Z,-23806.50
2022-08-07T01:54:37.246Z,-23802.16
2022-08-07T01:57:28.984Z,-23797.28
2022-08-07T02:00:17.769Z,-23798.50
2022-08-07T02:03:12.286Z,-23797.53
2022-08-07T02:06:31.294Z,-23792.94
2022-08-07T02:09:33.457Z,-23778.34
2022-08-07T02:12:31.464Z,-23783.44
2022-08-07T02:15:23.443Z,-23772.28
2022-08-07T02:18:15.365Z,-23787.81
2022-08-07T02:21:08.330Z,-23781.50
2022-08-07T02:24:04.617Z,-23785.63
2022-08-07T02:26:52.820Z,-23784.44
2022-08-07T02:29:48.706Z,-23762.34
2022-08-07T02:33:03.618Z,-23763.31
2022-08-07T02:36:28.520Z,-23754.56
2022-08-07T02:38:58.562Z,-23757.00
2022-08-07T02:41:50.545Z,-23757.97
2022-08-07T02:44:48.207Z,-23753.13
2022-08-07T02:47:44.895Z,-23766.69
2022-08-07T02:50:36.083Z,-23765.50
2022-08-07T02:53:28.690Z,-23764.28
2022-08-07T02:56:21.918Z,-23758.94
2022-08-07T02:59:11.664Z,-23757.25
2022-08-07T03:02:02.212Z,-23726.66
2022-08-07T03:04:51.746Z,-23740.50
2022-08-07T03:08:04.957Z,-23735.66
2022-08-07T03:10:47.205Z,-23747.28
2022-08-07T03:13:39.339Z,-23749.72
2022-08-07T03:16:38.480Z,-23734.66
2022-08-07T03:19:28.859Z,-23728.59
2022-08-07T03:22:30.420Z,-23724.00
2022-08-07T03:25:21.078Z,-23729.34
2022-08-07T03:28:38.551Z,-23733.94
2022-08-07T03:31:24.647Z,-23714.28
2022-08-07T03:34:18.462Z,-23720.34
2022-08-07T03:37:12.171Z,-23723.03
2022-08-07T03:40:15.557Z,-23725.44
2022-08-07T03:43:05.385Z,-23723.50
2022-08-07T03:46:02.990Z,-23730.31
2022-08-07T03:49:02.772Z,-23731.28
2022-08-07T03:51:55.314Z,-23716.97
2022-08-07T03:54:54.924Z,-23723.50
2022-08-07T03:58:34.089Z,-23712.09
2022-08-07T04:00:59.419Z,-23718.41
2022-08-07T04:03:53.247Z,-23713.31
2022-08-07T04:06:41.036Z,-23717.69
2022-08-07T04:09:45.084Z,-23719.38
2022-08-07T04:12:36.674Z,-23710.88
2022-08-07T04:15:24.810Z,-23713.31
2022-08-07T04:18:57.024Z,-23720.59
2022-08-07T04:21:21.897Z,-23711.88
2022-08-07T04:24:34.152Z,-23705.56
2022-08-07T04:27:25.335Z,-23702.66
2022-08-07T04:30:35.571Z,-23700.69
2022-08-07T04:33:24.413Z,-23706.53
2022-08-07T04:36:12.187Z,-23691.47
2022-08-07T04:38:59.302Z,-23690.25
2022-08-07T04:41:50.385Z,-23697.28
2022-08-07T04:44:54.350Z,-23695.34
2022-08-07T04:48:10.604Z,-23684.19
2022-08-07T04:51:09.238Z,-23692.22
2022-08-07T04:54:10.134Z,-23706.53
2022-08-07T04:58:16.823Z,-23700.47
2022-08-07T05:00:17.225Z,-23695.59
2022-08-07T05:04:00.370Z,-23673.03
2022-08-07T05:06:51.284Z,-23680.81
2022-08-07T05:10:05.193Z,-23693.41
2022-08-07T05:13:10.059Z,-23688.09
2022-08-07T05:16:14.384Z,-23700.94
2022-08-07T05:19:12.171Z,-23691.47
2022-08-07T05:22:04.723Z,-23700.69
2022-08-07T05:24:55.662Z,-23694.88
2022-08-07T05:28:03.433Z,-23701.66
2022-08-07T05:30:53.468Z,-23695.59
2022-08-07T05:33:41.189Z,-23703.59
2022-08-07T05:36:53.825Z,-23702.16
2022-08-07T05:40:17.371Z,-23715.50
2022-08-07T05:42:55.873Z,-23692.44
2022-08-07T05:45:46.718Z,-23683.72
2022-08-07T05:48:35.636Z,-23672.78
2022-08-07T05:51:46.644Z,-23675.69
2022-08-07T05:54:44.283Z,-23674.00
2022-08-07T05:57:42.668Z,-23681.78
2022-08-07T06:00:34.783Z,-23679.59
2022-08-07T06:03:23.775Z,-23675.94
2022-08-07T06:06:12.326Z,-23682.25
2022-08-07T06:09:05.225Z,-23683.00
2022-08-07T06:11:52.473Z,-23686.63
2022-08-07T06:14:39.634Z,-23683.22
2022-08-07T06:17:30.602Z,-23683.47
2022-08-07T06:20:31.757Z,-23682.25
2022-08-07T06:23:46.372Z,-23676.69
2022-08-07T06:26:27.368Z,-23674.97
2022-08-07T06:29:14.865Z,-23667.69
2022-08-07T06:32:02.160Z,-23676.91
2022-08-07T06:34:51.548Z,-23681.78
2022-08-07T06:37:43.610Z,-23691.47
2022-08-07T06:40:37.549Z,-23688.09
2022-08-07T06:43:39.802Z,-23687.59
2022-08-07T06:46:35.036Z,-23695.59
2022-08-07T06:49:22.474Z,-23695.34
2022-08-07T06:52:12.214Z,-23691.00
2022-08-07T06:55:32.465Z,-23685.19
2022-08-07T06:58:11.211Z,-23690.50
2022-08-07T07:00:59.405Z,-23693.41
2022-08-07T07:03:55.174Z,-23692.44
2022-08-07T07:06:57.561Z,-23693.66
2022-08-07T07:09:49.244Z,-23695.59
2022-08-07T07:12:53.518Z,-23707.50
2022-08-07T07:15:51.605Z,-23702.41
2022-08-07T07:18:48.179Z,-23712.59
2022-08-07T07:22:11.798Z,-23710.41
2022-08-07T07:24:56.899Z,-23707.00
2022-08-07T07:27:55.526Z,-23722.03
2022-08-07T07:31:03.768Z,-23712.59
2022-08-07T07:33:57.075Z,-23733.69
2022-08-07T07:36:47.890Z,-23730.53
2022-08-07T07:39:52.048Z,-23725.94
2022-08-07T07:42:47.159Z,-23737.09
2022-08-07T07:46:49.994Z,-23721.81
2022-08-07T07:48:48.870Z,-23728.84
2022-08-07T07:51:57.927Z,-23740.50
2022-08-07T07:54:51.201Z,-23735.66
2022-08-07T07:57:50.535Z,-23740.50
2022-08-07T08:00:42.671Z,-23742.44
2022-08-07T08:04:10.231Z,-23757.97
2022-08-07T08:06:48.198Z,-23773.97
2022-08-07T08:09:52.132Z,-23761.59
2022-08-07T08:12:58.823Z,-23767.44
2022-08-07T08:15:58.683Z,-23784.44
2022-08-07T08:18:50.462Z,-23789.75
2022-08-07T08:22:03.573Z,-23790.25
2022-08-07T08:25:24.708Z,-23788.06
2022-08-07T08:28:38.268Z,-23805.53
2022-08-07T08:31:59.075Z,-23792.94
2022-08-07T08:34:41.515Z,-23790.25
2022-08-07T08:38:01.094Z,-23793.41
2022-08-07T08:40:50.411Z,-23803.34
2022-08-07T08:43:56.302Z,-23793.88
2022-08-07T08:47:00.636Z,-23808.94
2022-08-07T08:50:09.885Z,-23814.50
2022-08-07T08:53:09.314Z,-23812.81
2022-08-07T08:56:02.927Z,-23812.09
2022-08-07T08:58:57.938Z,-23823.50
2022-08-07T09:01:59.625Z,-23823.25
2022-08-07T09:04:52.802Z,-23819.84
2022-08-07T09:07:59.929Z,-23830.28
2022-08-07T09:11:10.984Z,-23826.91
2022-08-07T09:14:10.923Z,-23845.09
2022-08-07T09:17:59.776Z,-23855.53
2022-08-07T09:21:34.264Z,-23854.81
2022-08-07T09:24:58.935Z,-23845.84
2022-08-07T09:30:01.625Z,-23843.88
2022-08-07T09:31:39.030Z,-23854.09
2022-08-07T09:35:04.566Z,-23874.47
2022-08-07T09:38:18.055Z,-23849.00
2022-08-07T09:41:16.030Z,-23860.41
2022-08-07T09:44:30.013Z,-23862.59
2022-08-07T09:47:58.962Z,-23876.91
2022-08-07T09:51:25.948Z,-23871.09
2022-08-07T09:54:47.094Z,-23838.06
2022-08-07T09:57:49.061Z,-23860.88
2022-08-07T10:01:04.050Z,-23872.53
2022-08-07T10:04:33.478Z,-23875.44
2022-08-07T10:07:53.305Z,-23881.03
2022-08-07T10:12:00.055Z,-23897.78
2022-08-07T10:14:38.913Z,-23891.72
2022-08-07T10:18:11.919Z,-23902.88
2022-08-07T10:22:12.196Z,-23916.50
2022-08-07T10:24:40.616Z,-23912.84
2022-08-07T10:27:51.383Z,-23930.31
2022-08-07T10:30:50.845Z,-23927.41
2022-08-07T10:34:07.000Z,-23918.19
2022-08-07T10:37:12.767Z,-23927.16
2022-08-07T10:40:22.932Z,-23939.06
2022-08-07T10:43:49.486Z,-23954.63
2022-08-07T10:47:11.872Z,-23962.13
2022-08-07T10:50:12.724Z,-23957.53
2022-08-07T10:53:11.318Z,-23966.25
2022-08-07T10:56:31.519Z,-23954.13
2022-08-07T10:59:30.255Z,-23964.06
2022-08-07T11:02:34.254Z,-23946.13
2022-08-07T11:05:44.863Z,-23952.19
2022-08-07T11:08:54.772Z,-23981.56
2022-08-07T11:11:52.380Z,-23974.03
2022-08-07T11:14:59.961Z,-23975.50
2022-08-07T11:18:03.710Z,-23997.34
2022-08-07T11:20:59.259Z,-23989.34
2022-08-07T11:23:54.387Z,-23986.66
2022-08-07T11:27:00.309Z,-23985.22
2022-08-07T11:30:10.179Z,-23971.59
2022-08-07T11:33:07.987Z,-23988.84
2022-08-07T11:36:12.726Z,-23987.16
2022-08-07T11:39:14.543Z,-24004.16
2022-08-07T11:42:22.112Z,-24013.38
2022-08-07T11:46:03.459Z,-23987.63
2022-08-07T11:49:50.288Z,-23993.94
2022-08-07T11:52:51.284Z,-24005.13
2022-08-07T11:56:15.579Z,-24008.53
2022-08-07T12:00:12.506Z,-24019.94
2022-08-07T12:02:52.296Z,-24026.50
2022-08-07T12:05:54.521Z,-24019.69
2022-08-07T12:08:53.792Z,-24027.94
2022-08-07T12:12:10.839Z,-24029.91
2022-08-07T12:15:17.154Z,-24028.19
2022-08-07T12:18:47.585Z,-24025.78
2022-08-07T12:22:35.933Z,-24033.31
2022-08-07T12:26:05.584Z,-24043.50
2022-08-07T12:29:37.155Z,-24041.56
2022-08-07T12:32:38.148Z,-24049.81
2022-08-07T12:35:26.986Z,-24064.88
2022-08-07T12:38:36.769Z,-24042.53
2022-08-07T12:41:29.147Z,-24048.34
2022-08-07T12:44:35.323Z,-24068.50
2022-08-07T12:47:37.723Z,-24060.97
2022-08-07T12:50:40.392Z,-24063.91
2022-08-07T12:54:24.046Z,-24064.13
2022-08-07T12:57:09.545Z,-24065.13
2022-08-07T13:00:00.614Z,-24058.56
2022-08-07T13:03:09.584Z,-24074.84
2022-08-07T13:06:36.947Z,-24086.25
2022-08-07T13:10:37.927Z,-24093.53
2022-08-07T13:13:48.323Z,-24084.53
2022-08-07T13:16:54.827Z,-24080.19
2022-08-07T13:19:51.804Z,-24068.75
2022-08-07T13:22:52.461Z,-24098.88
2022-08-07T13:26:00.892Z,-24079.69
2022-08-07T13:29:09.558Z,-24100.09
2022-08-07T13:32:23.812Z,-24092.56
2022-08-07T13:36:00.528Z,-24109.56
2022-08-07T13:39:12.743Z,-24108.34
2022-08-07T13:42:10.633Z,-24105.69
2022-08-07T13:46:06.337Z,-24120.75
2022-08-07T13:48:08.896Z,-24113.44
2022-08-07T13:51:01.669Z,-24123.66
2022-08-07T13:54:01.596Z,-24132.41
2022-08-07T13:56:59.547Z,-24130.94
2022-08-07T13:59:54.910Z,-24123.66
2022-08-07T14:02:51.032Z,-24137.25
2022-08-07T14:05:41.651Z,-24137.75
2022-08-07T14:08:29.673Z,-24139.69
2022-08-07T14:11:21.719Z,-24133.38
2022-08-07T14:14:12.081Z,-24138.97
2022-08-07T14:17:31.983Z,-24136.03
2022-08-07T14:20:43.048Z,-24153.78
2022-08-07T14:23:59.593Z,-24149.66
2022-08-07T14:28:09.631Z,-24139.69
2022-08-07T14:30:14.225Z,-24144.06
2022-08-07T14:33:04.377Z,-24144.06
2022-08-07T14:35:59.795Z,-24132.91
2022-08-07T14:38:51.035Z,-24145.03
2022-08-07T14:42:20.394Z,-24148.69
2022-08-07T14:44:59.964Z,-24141.16
2022-08-07T14:48:04.398Z,-24135.31
2022-08-07T14:50:54.308Z,-24159.13
2022-08-07T14:56:54.244Z,-24158.16
2022-08-07T15:00:03.659Z,-24171.25
2022-08-07T15:02:56.946Z,-24152.31
2022-08-07T15:05:54.371Z,-24174.44
2022-08-07T15:08:54.629Z,-24178.56
2022-08-07T15:12:01.460Z,-24162.03
2022-08-07T15:14:57.583Z,-24160.81
2022-08-07T15:17:55.108Z,-24158.16
2022-08-07T15:20:55.078Z,-24170.31
2022-08-07T15:25:15.127Z,-24191.91
2022-08-07T15:27:06.292Z,-24164.00
2022-08-07T15:33:19.234Z,-24186.34
2022-08-07T15:36:08.539Z,-24171.75
2022-08-07T15:38:59.694Z,-24175.16
2022-08-07T15:42:44.051Z,-24179.28
2022-08-07T15:45:56.466Z,-24167.88
2022-08-07T15:48:36.305Z,-24169.34
2022-08-07T15:54:47.668Z,-24182.94
2022-08-07T15:57:48.040Z,-24176.38
2022-08-07T16:00:37.977Z,-24179.03
2022-08-07T16:03:46.307Z,-24161.56
2022-08-07T16:06:38.503Z,-24149.41
2022-08-07T16:09:42.035Z,-24166.41
2022-08-07T16:13:05.833Z,-24162.03
2022-08-07T16:16:48.965Z,-24180.75
2022-08-07T16:19:58.841Z,-24190.72
2022-08-07T16:23:53.596Z,-24179.28
2022-08-07T16:27:00.015Z,-24178.06
2022-08-07T16:30:30.409Z,-24195.56
2022-08-07T16:34:01.549Z,-24213.31
2022-08-07T16:37:01.914Z,-24253.41
2022-08-07T16:39:49.286Z,-24212.56
2022-08-07T16:42:57.680Z,-24247.81
2022-08-07T16:50:20.466Z,-24425.91
2022-08-07T16:53:48.137Z,-24446.06
2022-08-07T16:56:18.755Z,-24439.03
2022-08-07T16:59:19.580Z,-24475.47
2022-08-07T17:02:53.048Z,-24499.78
2022-08-07T17:06:29.109Z,-24492.00
2022-08-07T17:10:07.354Z,-24525.53
2022-08-07T17:12:53.228Z,-24440.50
2022-08-07T17:16:20.735Z,-24490.56
2022-08-07T17:20:00.714Z,-24449.47
2022-08-07T17:22:48.848Z,-24467.22
2022-08-07T17:26:03.692Z,-24424.47
2022-08-07T17:30:15.686Z,-24406.00
2022-08-07T17:32:59.730Z,-24409.38
2022-08-07T17:35:56.065Z,-24414.25
2022-08-07T17:39:15.424Z,-24410.84
2022-08-07T17:42:06.941Z,-24358.59
2022-08-07T17:44:58.429Z,-24361.28
2022-08-07T17:47:59.124Z,-24435.88
2022-08-07T17:50:54.395Z,-24402.09
2022-08-07T17:54:06.328Z,-24369.78
2022-08-07T17:57:02.050Z,-24309.50
2022-08-07T18:00:11.312Z,-24347.41
2022-08-07T18:03:09.081Z,-24387.28
2022-08-07T18:06:16.694Z,-24321.91
2022-08-07T18:10:04.900Z,-24306.84
2022-08-07T18:12:59.888Z,-24337.72
2022-08-07T18:15:55.434Z,-24312.69
2022-08-07T18:21:12.555Z,-24274.75
2022-08-07T18:22:11.494Z,-24318.75
2022-08-07T18:25:19.062Z,-24275.00
2022-08-07T18:28:35.597Z,-24233.00
2022-08-07T18:31:55.729Z,-24209.16
2022-08-07T18:35:09.531Z,-24200.44
2022-08-07T18:38:58.641Z,-24161.78
2022-08-07T18:41:49.799Z,-24139.94
2022-08-07T18:45:43.783Z,-24090.63
2022-08-07T18:50:05.434Z,-24079.19
2022-08-07T18:52:34.720Z,-24073.63
2022-08-07T18:55:55.847Z,-24064.88
2022-08-07T18:59:47.590Z,-24057.81
2022-08-07T19:02:58.109Z,-24054.19
2022-08-07T19:06:02.110Z,-24049.81
2022-08-07T19:08:54.580Z,-24046.91
2022-08-07T19:12:04.698Z,-24045.44
2022-08-07T19:16:02.973Z,-24041.56
2022-08-07T19:18:37.430Z,-24039.38
2022-08-07T19:21:47.784Z,-24037.66
2022-08-07T19:24:53.103Z,-24039.38
2022-08-07T19:29:03.547Z,-24035.00
2022-08-07T19:31:41.881Z,-24036.44
2022-08-07T19:34:08.326Z,-24034.28
2022-08-07T19:36:58.060Z,-24036.69
2022-08-07T19:40:06.853Z,-24033.06
2022-08-07T19:42:56.720Z,-24029.41
2022-08-07T19:46:05.321Z,-24031.13
2022-08-07T19:49:05.322Z,-24033.06
2022-08-07T19:52:00.607Z,-24026.50
2022-08-07T19:54:55.866Z,-24023.59
2022-08-07T19:58:03.483Z,-24037.66
2022-08-07T20:00:57.479Z,-24032.09
2022-08-07T20:03:47.026Z,-24022.59
2022-08-07T20:06:34.147Z,-24025.53
2022-08-07T20:10:35.701Z,-24023.81
2022-08-07T20:12:42.838Z,-24029.41
2022-08-07T20:15:33.123Z,-24030.38
2022-08-07T20:18:33.775Z,-24033.31
2022-08-07T20:21:22.608Z,-24026.75
2022-08-07T20:24:16.733Z,-24019.69
2022-08-07T20:27:07.451Z,-24013.63
2022-08-07T20:30:00.048Z,-24001.00
2022-08-07T20:32:48.606Z,-23996.63
2022-08-07T20:35:51.877Z,-23993.22
2022-08-07T20:38:56.824Z,-23993.69
2022-08-07T20:41:50.747Z,-23983.50
2022-08-07T20:44:42.199Z,-23985.69
2022-08-07T20:47:56.512Z,-23986.19
2022-08-07T20:50:45.649Z,-23976.72
2022-08-07T20:54:04.580Z,-23974.53
2022-08-07T20:56:46.240Z,-23968.44
2022-08-07T21:00:07.874Z,-23967.72
2022-08-07T21:02:58.843Z,-23966.25
2022-08-07T21:06:25.745Z,-23961.41
2022-08-07T21:09:19.913Z,-23963.09
2022-08-07T21:12:15.111Z,-23957.53
2022-08-07T21:15:07.001Z,-23953.41
2022-08-07T21:18:20.296Z,-23950.72
2022-08-07T21:21:05.757Z,-23947.56
2022-08-07T21:24:07.874Z,-23946.59
2022-08-07T21:27:06.971Z,-23946.59
2022-08-07T21:30:04.671Z,-23949.25
2022-08-07T21:32:57.773Z,-23950.25
2022-08-07T21:36:05.241Z,-23945.88
2022-08-07T21:39:47.564Z,-23944.41
2022-08-07T21:42:51.162Z,-23947.81
2022-08-07T21:46:10.514Z,-23951.69
2022-08-07T21:49:17.821Z,-23943.94
2022-08-07T21:52:16.720Z,-23940.78
2022-08-07T21:55:37.979Z,-23942.94
2022-08-07T21:58:32.913Z,-23941.97
2022-08-07T22:02:07.380Z,-23944.41
2022-08-07T22:04:54.039Z,-23946.13
2022-08-07T22:07:57.865Z,-23944.91
2022-08-07T22:10:53.918Z,-23949.25
2022-08-07T22:13:52.966Z,-23943.94
2022-08-07T22:16:58.382Z,-23947.31
2022-08-07T22:20:05.292Z,-23944.41
2022-08-07T22:23:01.768Z,-23941.75
2022-08-07T22:25:58.234Z,-23941.50
2022-08-07T22:28:53.358Z,-23938.09
2022-08-07T22:32:03.548Z,-23936.88
2022-08-07T22:34:55.570Z,-23931.06
2022-08-07T22:38:03.454Z,-23926.69
2022-08-07T22:40:59.780Z,-23932.75
2022-08-07T22:43:54.629Z,-23926.44
2022-08-07T22:47:16.804Z,-23918.19
2022-08-07T22:50:20.786Z,-23916.72
2022-08-07T22:53:15.446Z,-23919.63
2022-08-07T22:56:08.855Z,-23912.59
2022-08-07T22:59:07.760Z,-23912.59
2022-08-07T23:02:23.376Z,-23904.09
2022-08-07T23:06:10.343Z,-23903.88
2022-08-07T23:10:01.196Z,-23900.69
2022-08-07T23:12:44.074Z,-23901.66
2022-08-07T23:16:06.912Z,-23904.09
2022-08-07T23:19:19.513Z,-23900.94
2022-08-07T23:22:58.526Z,-23902.66
2022-08-07T23:25:57.949Z,-23902.66
2022-08-07T23:29:43.168Z,-23891.00
2022-08-07T23:34:21.909Z,-23897.06
2022-08-07T23:36:33.781Z,-23899.25
2022-08-07T23:39:43.807Z,-23888.56
2022-08-07T23:42:57.543Z,-23891.97
2022-08-07T23:46:23.895Z,-23895.13
2022-08-07T23:49:42.436Z,-23892.94
2022-08-07T23:53:06.384Z,-23889.78
2022-08-07T23:56:05.467Z,-23881.78
